Latest Weather Observations for Newman Airport

IDW60801

Issued at 10:02 pm WST Thursday 28 May 2015 (issued every 30 minutes, with the page automatically refreshed every 10 minutes)

About weather observations | Map of weather stations | Latest weather observations for WA | Other Formats
Station Details ID: 007176 Name: NEWMAN AERO Lat: -23.42 Lon: 119.80 Height: 524.0 m
Data from the previous 72 hours. | See also: Recent months at Newman Airport
Date/Time
WST
Temp
°C
App
Temp
°C
Dew
Point
Rel
Hum
%
Delta-T
°C
Wind Press
QNH
hPa
Press
MSL
hPa
Rain
since 9 am
mm
Dir
 
Spd
km/h
Gust
km/h
Spd
kts
Gust
kts
28/10:00pm 16.0 16.4 12.6 80 1.9 E 2 7 1 4 1019.9 1018.0 0.0
28/09:48pm 16.0 16.4 12.6 80 1.9 E 2 7 1 4 1019.8 1017.9 0.0
28/09:30pm 16.0 15.5 12.6 80 1.9 E 7 9 4 5 1019.7 1017.7 0.0
28/09:00pm 16.0 16.8 12.6 80 1.9 CALM 0 0 0 0 1019.7 1017.7 0.0
28/08:30pm 16.0 15.6 12.4 79 2.0 E 6 7 3 4 1019.7 1017.7 0.0
28/08:00pm 16.1 16.9 12.5 79 2.0 CALM 0 0 0 0 1019.5 1017.5 0.0
28/07:30pm 16.4 15.9 12.8 79 2.0 NE 7 9 4 5 1019.2 1017.3 0.0
28/07:00pm 16.4 15.6 12.8 79 2.0 NE 9 11 5 6 1019.0 1017.1 0.0
28/06:30pm 16.6 15.8 12.8 78 2.2 NE 9 9 5 5 1018.9 1017.0 0.0
28/06:00pm 16.9 16.5 13.0 78 2.2 NE 7 9 4 5 1018.8 1016.9 0.0
28/05:30pm 17.1 16.6 12.8 76 2.5 NE 7 9 4 5 1018.5 1016.6 0.0
28/05:18pm 17.2 16.8 12.9 76 2.5 ENE 7 11 4 6 1018.5 1016.6 0.0
28/05:00pm 17.4 16.7 13.1 76 2.5 ENE 9 13 5 7 1018.3 1016.4 0.0
28/04:58pm 17.4 16.7 13.1 76 2.5 NE 9 13 5 7 1018.3 1016.4 0.0
28/04:51pm 17.4 16.6 12.9 75 2.6 ENE 9 13 5 7 1018.3 1016.4 0.0
28/04:30pm 17.6 16.5 13.1 75 2.6 NE 11 15 6 8 1018.0 1016.0 0.0
28/04:17pm 17.6 16.4 12.9 74 2.7 NE 11 15 6 8 1017.9 1015.9 0.0
28/04:00pm 17.9 16.7 12.8 72 2.9 NE 11 15 6 8 1017.9 1015.9 0.0
28/03:30pm 18.1 17.3 12.8 71 3.0 E 9 13 5 7 1017.5 1015.5 0.0
28/03:00pm 17.7 17.2 12.8 73 2.8 NNE 7 9 4 5 1017.6 1015.6 0.0
28/02:30pm 17.6 17.6 12.5 72 2.9 NNE 4 7 2 4 1017.5 1015.5 0.0
28/02:02pm 17.6 16.7 12.5 72 2.9 NNE 9 13 5 7 1017.5 1015.5 0.0
28/02:00pm 17.6 16.7 12.5 72 2.9 NNE 9 11 5 6 1017.5 1015.5 0.0
28/01:41pm 17.4 16.5 12.5 73 2.8 NE 9 11 5 6 1017.5 1015.5 0.0
28/01:30pm 17.3 16.3 12.4 73 2.8 NNE 9 13 5 7 1017.5 1015.5 0.0
28/01:00pm 18.0 16.6 12.2 69 3.3 NNE 11 13 6 7 1017.6 1015.6 0.0
28/12:34pm 17.9 16.5 12.1 69 3.3 NNE 11 15 6 8 1017.9 1015.9 0.0
28/12:30pm 18.1 17.1 12.3 69 3.3 NNE 9 13 5 7 1018.0 1016.0 0.0
28/12:00pm 18.2 16.5 12.4 69 3.3 NE 13 15 7 8 1018.1 1016.2 0.0
28/11:30am 17.7 16.6 11.9 69 3.3 NNE 9 15 5 8 1018.8 1016.9 0.0
28/11:00am 17.7 16.3 12.2 70 3.1 NNE 11 13 6 7 1019.1 1017.2 0.0
28/10:30am 17.6 16.7 12.5 72 2.9 NE 9 13 5 7 1019.3 1017.4 0.0
28/10:00am 17.2 16.5 12.1 72 2.9 NE 7 11 4 6 1019.5 1017.5 0.0
28/09:54am 17.2 16.5 12.1 72 2.9 NE 7 11 4 6 1019.3 1017.4 0.0
28/09:34am 17.4 16.4 12.3 72 2.9 NE 9 13 5 7 1019.3 1017.4 0.0
28/09:30am 17.4 16.9 12.5 73 2.8 NE 7 13 4 7 1019.3 1017.4 0.0
28/09:00am 17.1 17.5 12.4 74 2.7 ENE 2 7 1 4 1019.0 1017.1 8.8
28/08:30am 16.7 16.2 12.5 76 2.4 ENE 7 9 4 5 1018.7 1016.8 8.8
28/08:00am 16.1 16.8 12.3 78 2.1 CALM 0 0 0 0 1018.6 1016.7 8.8
28/07:30am 15.8 16.5 12.2 79 2.0 CALM 0 0 0 0 1018.6 1016.7 8.8
28/07:00am 15.4 16.0 11.8 79 2.0 CALM 0 0 0 0 1018.1 1016.2 8.8
28/06:30am 15.4 14.8 11.8 79 2.0 E 6 7 3 4 1018.0 1016.0 8.8
28/06:18am 15.3 14.7 11.7 79 2.0 E 6 7 3 4 1017.8 1015.8 8.8
28/06:00am 15.4 15.6 11.8 79 2.0 E 2 7 1 4 1017.7 1015.7 8.8
28/05:30am 15.4 16.0 11.8 79 2.0 CALM 0 0 0 0 1017.6 1015.6 8.8
28/05:00am 15.4 14.9 12.0 80 1.9 ENE 6 7 3 4 1017.5 1015.5 8.8
28/04:30am 15.2 14.4 11.8 80 1.9 ENE 7 7 4 4 1017.2 1015.3 8.8
28/04:00am 15.3 14.7 11.7 79 2.0 E 6 9 3 5 1016.8 1014.9 8.8
28/03:30am 15.4 16.0 11.8 79 2.0 CALM 0 0 0 0 1016.9 1015.0 8.8
28/03:00am 15.4 16.0 11.8 79 2.0 CALM 0 0 0 0 1016.6 1014.7 8.8
28/02:30am 15.5 14.8 11.9 79 2.0 NE 7 11 4 6 1017.4 1015.4 8.8
28/02:00am 15.5 15.0 11.9 79 2.0 NNE 6 7 3 4 1017.4 1015.4 8.8
28/01:30am 15.6 14.5 12.0 79 2.0 N 9 15 5 8 1017.6 1015.6 8.8
28/01:08am 15.5 13.2 11.7 78 2.1 NNE 15 20 8 11 1017.0 1015.1 8.8
28/01:00am 15.6 12.9 11.8 78 2.1 N 17 24 9 13 1017.0 1015.1 8.8
28/12:43am 15.7 13.4 11.9 78 2.1 NNE 15 22 8 12 1016.9 1015.0 8.8
28/12:30am 15.6 13.7 11.8 78 2.1 NNE 13 19 7 10 1016.9 1015.0 8.8
28/12:00am 15.7 13.8 11.7 77 2.2 NNE 13 20 7 11 1017.2 1015.3 8.8
 
Date/Time
WST
Temp
°C
App
Temp
°C
Dew
Point
Rel
Hum
%
Delta-T
°C
Wind Press
QNH
hPa
Press
MSL
hPa
Rain
since 9 am
mm
Dir
 
Spd
km/h
Gust
km/h
Spd
kts
Gust
kts
27/11:33pm 15.7 13.8 11.9 78 2.1 N 13 15 7 8 1018.1 1016.2 8.8
27/11:30pm 15.7 13.8 11.9 78 2.1 N 13 15 7 8 1018.1 1016.2 8.8
27/11:00pm 15.8 14.3 11.8 77 2.2 NNE 11 17 6 9 1018.4 1016.5 8.6
27/10:30pm 15.8 13.6 12.0 78 2.1 NNE 15 24 8 13 1017.7 1015.7 8.6
27/10:21pm 15.7 14.2 11.9 78 2.1 NNE 11 15 6 8 1017.8 1015.8 8.6
27/10:00pm 15.7 13.1 12.1 79 2.0 N 17 24 9 13 1018.3 1016.4 8.4
27/09:50pm 15.7 13.5 12.1 79 2.0 N 15 22 8 12 1018.3 1016.4 8.4
27/09:30pm 15.6 13.4 12.0 79 2.0 NNE 15 20 8 11 1018.5 1016.6 8.4
27/09:05pm 15.6 13.4 12.2 80 1.9 NNE 15 22 8 12 1018.7 1016.8 8.4
27/09:00pm 15.6 14.2 12.2 80 1.9 NNE 11 19 6 10 1018.9 1017.0 8.4
27/08:30pm 15.6 14.2 12.2 80 1.9 NNE 11 15 6 8 1019.3 1017.4 8.4
27/08:00pm 15.5 13.7 12.1 80 1.9 N 13 20 7 11 1018.9 1017.0 8.4
27/07:30pm 15.3 13.0 11.9 80 1.9 N 15 24 8 13 1018.6 1016.7 8.4
27/07:00pm 15.1 12.8 11.7 80 1.9 NE 15 20 8 11 1018.3 1016.4 8.4
27/06:30pm 15.1 13.9 11.5 79 2.0 N 9 15 5 8 1018.8 1016.9 7.8
27/06:02pm 15.1 13.5 11.5 79 2.0 ENE 11 15 6 8 1018.2 1016.3 7.0
27/06:01pm 15.1 13.9 11.5 79 2.0 ENE 9 15 5 8 1018.2 1016.3 7.0
27/06:00pm 15.1 13.9 11.5 79 2.0 NE 9 13 5 7 1018.2 1016.3 7.0
27/05:30pm 15.1 13.9 11.5 79 2.0 N 9 13 5 7 1018.3 1016.4 6.8
27/05:00pm 15.0 12.2 11.4 79 2.0 N 17 22 9 12 1017.5 1015.5 6.4
27/04:30pm 15.1 11.8 11.5 79 2.0 NE 20 32 11 17 1016.8 1014.9 6.2
27/04:00pm 15.2 12.9 11.6 79 2.0 NE 15 20 8 11 1017.6 1015.6 5.4
27/03:30pm 15.2 13.9 11.4 78 2.1 NNE 9 11 5 6 1018.1 1016.2 5.0
27/03:18pm 15.2 14.0 11.6 79 2.0 N 9 13 5 7 1018.1 1016.2 4.8
27/03:00pm 15.2 12.9 11.6 79 2.0 NNE 15 19 8 10 1017.8 1015.8 4.4
27/02:56pm 15.2 12.8 11.4 78 2.1 NNE 15 19 8 10 1017.7 1015.7 4.4
27/02:30pm 15.0 15.4 11.2 78 2.1 CALM 0 0 0 0 1017.9 1015.9 3.6
27/02:09pm 14.8 13.0 11.0 78 2.1 NE 11 15 6 8 1017.5 1015.5 3.0
27/02:00pm 14.8 13.0 11.0 78 2.1 NNE 11 15 6 8 1017.5 1015.5 2.8
27/01:51pm 14.7 12.5 10.9 78 2.1 N 13 19 7 10 1018.2 1016.3 2.4
27/01:30pm 15.0 13.2 10.8 76 2.3 NE 11 17 6 9 1018.1 1016.2 1.0
27/01:18pm 15.2 14.2 11.0 76 2.3 ENE 7 15 4 8 1018.3 1016.4 0.6
27/01:00pm 15.3 13.2 11.3 77 2.2 ENE 13 19 7 10 1017.8 1015.8 0.6
27/12:30pm 15.5 13.4 11.3 76 2.3 NNE 13 17 7 9 1018.8 1016.9 0.6
27/12:00pm 15.5 13.8 11.3 76 2.3 NE 11 17 6 9 1019.1 1017.2 0.4
27/11:30am 16.2 15.7 10.9 71 2.9 N 4 13 2 7 1019.9 1018.0 0.0
27/11:00am 16.3 16.5 10.6 69 3.1 CALM 0 0 0 0 1019.7 1017.7 0.0
27/10:30am 16.2 15.1 10.5 69 3.1 NNW 7 9 4 5 1019.7 1017.7 0.0
27/10:00am 16.2 15.1 10.5 69 3.1 E 7 9 4 5 1020.1 1018.2 0.0
27/09:30am 15.7 14.6 10.5 71 2.8 SE 7 11 4 6 1020.2 1018.3 0.0
27/09:00am 15.2 14.0 10.4 73 2.6 SE 7 9 4 5 1020.2 1018.3 0.8
27/08:30am 14.4 12.7 10.0 75 2.3 SSE 9 11 5 6 1020.1 1018.2 0.8
27/08:00am 14.0 12.7 10.0 77 2.1 S 7 11 4 6 1020.2 1018.3 0.8
27/07:30am 13.6 13.6 9.8 78 2.0 CALM 0 0 0 0 1019.9 1018.0 0.8
27/07:00am 13.3 13.3 9.7 79 1.9 CALM 0 0 0 0 1019.6 1017.6 0.8
27/06:30am 13.0 12.9 9.4 79 1.9 CALM 0 0 0 0 1019.3 1017.4 0.8
27/06:00am 12.8 12.7 9.3 79 1.8 CALM 0 0 0 0 1019.2 1017.3 0.8
27/05:30am 12.7 12.5 9.2 79 1.8 CALM 0 0 0 0 1019.1 1017.2 0.8
27/05:00am 12.6 12.4 9.2 80 1.8 CALM 0 0 0 0 1019.0 1017.1 0.8
27/04:30am 12.4 12.2 8.9 79 1.8 CALM 0 0 0 0 1018.9 1017.0 0.8
27/04:00am 12.3 12.0 8.8 79 1.8 CALM 0 6 0 3 1018.9 1017.0 0.8
27/03:30am 12.2 10.8 8.7 79 1.8 SE 6 7 3 4 1019.1 1017.2 0.8
27/03:00am 12.2 11.9 8.7 79 1.8 CALM 0 7 0 4 1019.2 1017.3 0.8
27/02:30am 12.5 12.3 9.0 79 1.8 CALM 0 0 0 0 1019.3 1017.4 0.8
27/02:00am 12.8 12.6 9.1 78 1.9 CALM 0 0 0 0 1019.5 1017.5 0.8
27/01:30am 12.9 12.7 9.2 78 1.9 CALM 0 0 0 0 1020.0 1018.1 0.8
27/01:00am 13.0 12.8 8.9 76 2.1 CALM 0 0 0 0 1020.4 1018.5 0.8
27/12:30am 13.4 13.2 9.1 75 2.2 CALM 0 0 0 0 1020.5 1018.6 0.8
27/12:00am 13.5 13.3 9.2 75 2.2 CALM 0 0 0 0 1020.7 1018.8 0.8
 
Date/Time
WST
Temp
°C
App
Temp
°C
Dew
Point
Rel
Hum
%
Delta-T
°C
Wind Press
QNH
hPa
Press
MSL
hPa
Rain
since 9 am
mm
Dir
 
Spd
km/h
Gust
km/h
Spd
kts
Gust
kts
26/11:30pm 13.4 13.2 9.1 75 2.2 CALM 0 0 0 0 1021.2 1019.3 0.8
26/11:00pm 13.5 12.1 8.8 73 2.4 ESE 6 7 3 4 1021.1 1019.2 0.8
26/10:30pm 13.2 12.9 8.7 74 2.3 CALM 0 0 0 0 1021.5 1019.6 0.8
26/10:00pm 13.7 13.1 9.0 73 2.4 ESE 2 7 1 4 1021.6 1019.7 0.8
26/09:30pm 13.9 12.5 8.7 71 2.7 ESE 6 9 3 5 1021.8 1019.9 0.8
26/09:00pm 14.2 12.7 9.0 71 2.7 ESE 7 9 4 5 1022.0 1020.1 0.8
26/08:30pm 14.5 13.0 9.3 71 2.7 ESE 7 11 4 6 1022.1 1020.2 0.8
26/08:00pm 14.6 13.2 9.6 72 2.6 SE 7 11 4 6 1022.1 1020.2 0.8
26/07:30pm 14.7 13.3 9.7 72 2.7 SSE 7 11 4 6 1021.9 1020.0 0.8
26/07:00pm 15.0 12.8 9.4 69 3.0 SE 11 15 6 8 1021.6 1019.7 0.8
26/06:30pm 15.6 13.4 9.3 66 3.3 ESE 11 15 6 8 1021.3 1019.4 0.8
26/06:00pm 15.9 13.8 9.6 66 3.4 ESE 11 17 6 9 1021.0 1019.1 0.8
26/05:30pm 16.1 13.5 9.5 65 3.5 ESE 13 19 7 10 1020.9 1019.0 0.8
26/05:00pm 16.5 13.7 9.9 65 3.5 ESE 15 22 8 12 1020.7 1018.8 0.8
26/04:30pm 16.8 14.1 10.2 65 3.6 ESE 15 20 8 11 1020.8 1018.9 0.8
26/04:00pm 16.9 14.0 9.8 63 3.8 ESE 15 20 8 11 1020.8 1018.9 0.8
26/03:30pm 16.9 14.8 9.8 63 3.8 ESE 11 17 6 9 1020.6 1018.7 0.8
26/03:00pm 17.0 14.5 9.7 62 3.9 ESE 13 17 7 9 1020.7 1018.8 0.2
26/02:30pm 17.2 13.9 9.6 61 4.1 SE 17 22 9 12 1019.9 1018.0 0.2
26/02:00pm 16.6 13.7 9.8 64 3.7 SE 15 22 8 12 1020.1 1018.2 0.2
26/01:30pm 16.5 13.2 9.7 64 3.7 SSE 17 20 9 11 1020.2 1018.3 0.2
26/01:00pm 16.5 13.3 9.9 65 3.5 SE 17 24 9 13 1020.3 1018.4 0.2
26/12:30pm 16.2 13.7 9.6 65 3.5 SE 13 19 7 10 1020.8 1018.9 0.2
26/12:00pm 16.2 14.0 9.4 64 3.6 ESE 11 17 6 9 1021.1 1019.2 0.2
26/11:30am 15.8 13.3 9.7 67 3.3 ESE 13 19 7 10 1021.3 1019.4 0.2
26/11:00am 15.2 13.5 10.0 71 2.8 ESE 9 13 5 7 1021.8 1019.9 0.2
26/10:30am 14.7 12.5 9.3 70 2.8 SE 11 15 6 8 1021.9 1020.0 0.2
26/10:00am 14.7 12.8 9.1 69 2.9 E 9 17 5 9 1022.4 1020.5 0.0
26/09:30am 14.3 11.7 9.5 73 2.5 ESE 13 15 7 8 1022.4 1020.5 0.0
26/09:00am 14.4 12.2 9.2 71 2.7 E 11 13 6 7 1022.5 1020.6 31.4
26/08:30am 14.2 12.1 9.6 74 2.4 ESE 11 17 6 9 1022.2 1020.3 31.4
26/08:00am 14.0 12.7 9.8 76 2.2 SE 7 11 4 6 1022.4 1020.5 31.2
26/07:30am 13.8 12.4 9.6 76 2.2 SE 7 9 4 5 1022.4 1020.5 31.2
26/07:00am 13.8 12.4 9.6 76 2.2 SE 7 9 4 5 1022.0 1020.1 31.2
26/06:30am 13.8 12.5 9.8 77 2.1 SSE 7 11 4 6 1021.5 1019.6 31.2
26/06:00am 13.7 12.4 9.9 78 2.0 S 7 11 4 6 1021.5 1019.6 31.2
26/05:30am 13.6 12.3 9.8 78 2.0 SSW 7 11 4 6 1021.3 1019.4 31.2
26/05:00am 13.5 12.1 9.6 77 2.0 S 7 9 4 5 1021.0 1019.1 31.2
26/04:30am 13.6 12.3 9.8 78 2.0 SSE 7 9 4 5 1021.0 1019.1 31.2
26/04:00am 13.6 12.3 9.8 78 2.0 SW 7 9 4 5 1020.7 1018.8 31.2
26/03:30am 13.7 12.6 9.9 78 2.0 S 6 11 3 6 1020.9 1019.0 31.2
26/03:00am 13.7 13.7 9.7 77 2.1 CALM 0 0 0 0 1020.5 1018.6 31.0
26/02:30am 13.6 13.6 9.8 78 2.0 CALM 0 0 0 0 1020.8 1018.9 31.0
26/02:00am 13.6 12.3 10.0 79 1.9 S 7 9 4 5 1020.5 1018.6 31.0
26/01:30am 13.7 13.4 10.1 79 1.9 SSW 2 9 1 5 1021.1 1019.2 31.0
26/01:00am 13.6 12.3 9.8 78 2.0 E 7 9 4 5 1021.2 1019.3 31.0
26/12:30am 13.6 12.3 9.8 78 2.0 ESE 7 11 4 6 1021.3 1019.4 31.0
26/12:25am 13.6 11.9 9.8 78 2.0 ESE 9 15 5 8 1021.2 1019.3 31.0
26/12:00am 13.6 11.9 9.8 78 2.0 ESE 9 13 5 7 1021.3 1019.4 29.6
 
Date/Time
WST
Temp
°C
App
Temp
°C
Dew
Point
Rel
Hum
%
Delta-T
°C
Wind Press
QNH
hPa
Press
MSL
hPa
Rain
since 9 am
mm
Dir
 
Spd
km/h
Gust
km/h
Spd
kts
Gust
kts
25/11:52pm 13.7 12.5 9.7 77 2.1 ESE 6 7 3 4 1021.6 1019.7 28.6
25/11:30pm 13.9 12.8 9.9 77 2.1 ESE 6 7 3 4 1021.9 1020.0 27.2
25/11:00pm 14.2 12.9 10.0 76 2.2 ENE 7 11 4 6 1022.2 1020.3 26.6
25/10:30pm 14.2 13.1 10.0 76 2.2 E 6 7 3 4 1022.3 1020.4 26.4

Other Formats:

Comma delimited format used in spreadsheet applications
http://www.bom.gov.au/fwo/IDW60801/IDW60801.94317.axf

JavaScript Object Notation format (JSON) in row-major order
http://www.bom.gov.au/fwo/IDW60801/IDW60801.94317.json